createdAt,value
2018-09-22T00:01:06.758Z,1.50
2018-09-22T00:03:36.431Z,1.93
2018-09-22T00:06:05.718Z,2.37
2018-09-22T00:08:35.579Z,2.00
2018-09-22T00:11:04.966Z,1.93
2018-09-22T00:13:34.338Z,2.37
2018-09-22T00:16:03.330Z,2.23
2018-09-22T00:18:32.862Z,1.40
2018-09-22T00:21:02.554Z,2.47
2018-09-22T00:23:32.796Z,1.73
2018-09-22T00:26:02.311Z,2.07
2018-09-22T00:28:31.782Z,2.00
2018-09-22T00:31:01.319Z,2.37
2018-09-22T00:33:31.130Z,1.90
2018-09-22T00:36:00.734Z,1.57
2018-09-22T00:38:30.592Z,1.67
2018-09-22T00:41:00.234Z,2.37
2018-09-22T00:43:29.622Z,2.47
2018-09-22T00:45:58.866Z,1.90
2018-09-22T00:48:28.322Z,2.00
2018-09-22T00:50:57.834Z,2.00
2018-09-22T00:53:27.238Z,1.63
2018-09-22T00:55:56.318Z,1.30
2018-09-22T00:58:25.966Z,1.80
2018-09-22T01:00:55.310Z,2.10
2018-09-22T01:03:24.891Z,2.30
2018-09-22T01:05:54.035Z,1.83
2018-09-22T01:08:23.898Z,2.00
2018-09-22T01:10:53.278Z,2.23
2018-09-22T01:13:22.754Z,2.10
2018-09-22T01:15:51.886Z,2.00
2018-09-22T01:18:21.691Z,1.57
2018-09-22T01:20:51.390Z,1.70
2018-09-22T01:23:20.647Z,2.03
2018-09-22T01:25:50.517Z,1.57
2018-09-22T01:28:19.986Z,1.97
2018-09-22T01:30:49.438Z,1.57
2018-09-22T01:33:18.886Z,1.40
2018-09-22T01:35:48.290Z,2.03
2018-09-22T01:38:17.682Z,2.17
2018-09-22T01:40:47.226Z,2.00
2018-09-22T01:43:16.544Z,1.93
2018-09-22T01:45:45.930Z,2.10
2018-09-22T01:48:15.310Z,1.97
2018-09-22T01:50:44.590Z,1.43
2018-09-22T01:53:14.426Z,2.10
2018-09-22T01:55:43.935Z,1.40
2018-09-22T01:58:13.010Z,1.90
2018-09-22T02:00:42.642Z,1.40
2018-09-22T02:03:12.590Z,1.90
2018-09-22T02:05:42.690Z,1.80
2018-09-22T02:08:12.030Z,2.37
2018-09-22T02:10:41.422Z,1.90
2018-09-22T02:13:10.435Z,1.77
2018-09-22T02:15:39.530Z,1.50
2018-09-22T02:18:08.647Z,1.50
2018-09-22T02:20:38.158Z,1.90
2018-09-22T02:23:07.870Z,1.27
2018-09-22T02:25:37.790Z,2.00
2018-09-22T02:28:07.149Z,2.27
2018-09-22T02:30:36.545Z,1.63
2018-09-22T02:33:05.818Z,1.80
2018-09-22T02:35:34.833Z,1.60
2018-09-22T02:38:04.330Z,1.53
2018-09-22T02:40:33.446Z,1.67
2018-09-22T02:43:02.540Z,1.40
2018-09-22T02:45:31.638Z,2.20
2018-09-22T02:48:00.726Z,1.80
2018-09-22T02:50:30.137Z,1.50
2018-09-22T02:52:59.534Z,2.07
2018-09-22T02:55:29.114Z,1.53
2018-09-22T02:57:58.340Z,2.57
2018-09-22T03:00:27.329Z,2.23
2018-09-22T03:02:56.890Z,1.30
2018-09-22T03:05:26.371Z,1.50
2018-09-22T03:07:55.733Z,1.60
2018-09-22T03:10:25.581Z,1.90
2018-09-22T03:12:55.125Z,2.30
2018-09-22T03:15:24.747Z,1.33
2018-09-22T03:17:54.046Z,1.67
2018-09-22T03:20:23.642Z,1.73
2018-09-22T03:22:53.494Z,1.40
2018-09-22T03:25:22.982Z,1.50
2018-09-22T03:27:52.901Z,1.77
2018-09-22T03:30:22.010Z,1.10
2018-09-22T03:32:51.620Z,1.60
2018-09-22T03:35:20.923Z,1.63
2018-09-22T03:37:50.530Z,1.60
2018-09-22T03:40:20.118Z,1.70
2018-09-22T03:42:49.202Z,1.77
2018-09-22T03:45:19.087Z,1.63
2018-09-22T03:47:48.406Z,1.73
2018-09-22T03:50:17.391Z,1.70
2018-09-22T03:52:46.953Z,1.90
2018-09-22T03:55:16.003Z,1.40
2018-09-22T03:57:44.982Z,1.60
2018-09-22T04:00:14.374Z,1.67
2018-09-22T04:02:43.686Z,1.50
2018-09-22T04:05:13.510Z,1.10
2018-09-22T04:07:42.924Z,1.97
2018-09-22T04:10:12.495Z,1.40
2018-09-22T04:12:42.134Z,1.40
2018-09-22T04:15:11.434Z,1.50
2018-09-22T04:17:41.250Z,1.47
2018-09-22T04:20:11.089Z,1.03
2018-09-22T04:22:40.900Z,1.40
2018-09-22T04:25:10.218Z,1.37
2018-09-22T04:27:39.538Z,1.17
2018-09-22T04:30:09.179Z,1.60
2018-09-22T04:32:38.807Z,1.03
2018-09-22T04:35:08.258Z,1.93
2018-09-22T04:37:37.586Z,1.60
2018-09-22T04:40:06.948Z,1.43
2018-09-22T04:42:35.962Z,1.07
2018-09-22T04:45:05.482Z,1.80
2018-09-22T04:47:35.210Z,1.47
2018-09-22T04:50:04.627Z,2.23
2018-09-22T04:52:34.726Z,1.80
2018-09-22T04:55:04.306Z,1.43
2018-09-22T04:57:33.542Z,1.57
2018-09-22T05:00:02.606Z,1.50
2018-09-22T05:02:32.418Z,1.80
2018-09-22T05:05:02.159Z,1.20
2018-09-22T05:07:31.714Z,2.13
2018-09-22T05:10:01.483Z,1.83
2018-09-22T05:12:31.031Z,1.13
2018-09-22T05:15:00.674Z,1.60
2018-09-22T05:17:30.070Z,1.73
2018-09-22T05:19:59.886Z,1.50
2018-09-22T05:22:29.159Z,1.90
2018-09-22T05:24:58.713Z,2.63
2018-09-22T05:27:28.206Z,1.50
2018-09-22T05:29:57.561Z,1.83
2018-09-22T05:32:27.469Z,1.70
2018-09-22T05:34:56.790Z,1.40
2018-09-22T05:37:26.714Z,2.53
2018-09-22T05:39:56.066Z,1.70
2018-09-22T05:42:25.478Z,1.27
2018-09-22T05:44:55.307Z,1.83
2018-09-22T05:47:24.602Z,1.77
2018-09-22T05:49:54.208Z,1.20
2018-09-22T05:52:23.355Z,2.07
2018-09-22T05:54:53.168Z,2.40
2018-09-22T05:57:22.962Z,2.17
2018-09-22T05:59:52.327Z,1.90
2018-09-22T06:02:22.179Z,2.03
2018-09-22T06:04:51.551Z,1.77
2018-09-22T06:07:21.534Z,1.87
2018-09-22T06:09:51.816Z,2.27
2018-09-22T06:12:20.874Z,2.47
2018-09-22T06:14:50.911Z,1.80
2018-09-22T06:17:20.794Z,1.97
2018-09-22T06:19:50.417Z,2.37
2018-09-22T06:22:19.819Z,2.13
2018-09-22T06:24:49.222Z,2.23
2018-09-22T06:27:18.514Z,2.30
2018-09-22T06:29:47.902Z,2.00
2018-09-22T06:32:17.663Z,2.70
2018-09-22T06:34:47.569Z,2.80
2018-09-22T06:37:16.559Z,2.33
2018-09-22T06:39:45.630Z,2.90
2018-09-22T06:42:16.295Z,2.10
2018-09-22T06:44:45.478Z,2.33
2018-09-22T06:47:15.018Z,2.07
2018-09-22T06:49:44.295Z,2.47
2018-09-22T06:52:14.004Z,2.43
2018-09-22T06:54:43.839Z,2.17
2018-09-22T06:57:12.858Z,2.37
2018-09-22T06:59:42.126Z,2.40
2018-09-22T07:02:11.633Z,2.97
2018-09-22T07:04:41.579Z,1.70
2018-09-22T07:07:11.375Z,1.97
2018-09-22T07:09:44.231Z,2.13
2018-09-22T07:12:14.083Z,2.30
2018-09-22T07:14:43.382Z,2.00
2018-09-22T07:17:13.450Z,1.73
2018-09-22T07:19:43.514Z,1.87
2018-09-22T07:22:18.203Z,1.93
2018-09-22T07:24:47.547Z,2.53
2018-09-22T07:27:16.958Z,1.63
2018-09-22T07:29:46.886Z,2.17
2018-09-22T07:32:16.587Z,2.00
2018-09-22T07:34:46.337Z,1.73
2018-09-22T07:37:16.103Z,1.70
2018-09-22T07:39:45.551Z,1.90
2018-09-22T07:42:14.942Z,3.13
2018-09-22T07:44:44.859Z,2.00
2018-09-22T07:47:14.715Z,2.10
2018-09-22T07:49:44.550Z,2.30
2018-09-22T07:52:14.350Z,2.53
2018-09-22T07:54:44.090Z,2.80
2018-09-22T07:57:13.722Z,2.73
2018-09-22T07:59:42.801Z,2.73
2018-09-22T08:02:12.982Z,2.30
2018-09-22T08:04:42.940Z,3.50
2018-09-22T08:07:12.523Z,2.53
2018-09-22T08:09:42.310Z,3.00
2018-09-22T08:12:11.693Z,2.50
2018-09-22T08:14:41.199Z,2.80
2018-09-22T08:17:10.758Z,2.33
2018-09-22T08:19:40.887Z,3.30
2018-09-22T08:22:10.239Z,2.40
2018-09-22T08:24:40.003Z,3.23
2018-09-22T08:27:09.391Z,2.07
2018-09-22T08:29:38.743Z,3.20
2018-09-22T08:32:08.207Z,3.47
2018-09-22T08:34:37.562Z,3.70
2018-09-22T08:37:07.880Z,3.80
2018-09-22T08:39:37.070Z,3.20
2018-09-22T08:42:06.594Z,3.57
2018-09-22T08:44:36.362Z,3.20
2018-09-22T08:47:05.970Z,4.00
2018-09-22T08:49:35.424Z,3.33
2018-09-22T08:52:05.658Z,3.33
2018-09-22T08:54:35.206Z,3.07
2018-09-22T08:57:04.862Z,3.70
2018-09-22T08:59:34.765Z,3.37
2018-09-22T09:02:04.578Z,3.90
2018-09-22T09:04:34.398Z,3.60
2018-09-22T09:07:03.863Z,3.10
2018-09-22T09:09:32.913Z,2.80
2018-09-22T09:12:02.832Z,3.80
2018-09-22T09:14:32.465Z,3.67
2018-09-22T09:17:01.938Z,3.00
2018-09-22T09:19:31.930Z,2.23
2018-09-22T09:22:01.219Z,2.57
2018-09-22T09:24:30.610Z,3.57
2018-09-22T09:26:59.652Z,2.83
2018-09-22T09:29:29.543Z,2.37
2018-09-22T09:31:59.274Z,2.93
2018-09-22T09:34:28.370Z,3.20
2018-09-22T09:36:58.003Z,3.10
2018-09-22T09:39:28.026Z,3.77
2018-09-22T09:41:57.691Z,3.20
2018-09-22T09:44:26.735Z,3.87
2018-09-22T09:46:56.375Z,2.20
2018-09-22T09:49:26.291Z,3.10
2018-09-22T09:51:56.125Z,3.17
2018-09-22T09:54:25.215Z,3.27
2018-09-22T09:56:54.795Z,3.10
2018-09-22T09:59:24.522Z,2.60
2018-09-22T10:01:53.998Z,3.20
2018-09-22T10:04:24.401Z,2.70
2018-09-22T10:06:54.366Z,2.93
2018-09-22T10:09:26.751Z,2.90
2018-09-22T10:11:56.069Z,3.20
2018-09-22T10:14:25.838Z,3.00
2018-09-22T10:16:55.185Z,2.50
2018-09-22T10:19:24.964Z,2.73
2018-09-22T10:21:53.998Z,2.23
2018-09-22T10:24:23.574Z,2.13
2018-09-22T10:26:53.182Z,2.23
2018-09-22T10:29:22.962Z,1.70
2018-09-22T10:31:52.746Z,2.40
2018-09-22T10:34:22.294Z,1.70
2018-09-22T10:36:51.758Z,2.30
2018-09-22T10:39:20.799Z,2.63
2018-09-22T10:41:50.466Z,1.83
2018-09-22T10:44:20.142Z,2.00
2018-09-22T10:46:49.822Z,1.80
2018-09-22T10:49:19.094Z,1.97
2018-09-22T10:51:48.186Z,2.13
2018-09-22T10:54:17.310Z,2.13
2018-09-22T10:56:47.327Z,1.73
2018-09-22T10:59:16.934Z,1.93
2018-09-22T11:01:46.636Z,1.33
2018-09-22T11:04:16.104Z,2.00
2018-09-22T11:06:45.343Z,1.63
2018-09-22T11:09:14.706Z,1.93
2018-09-22T11:11:44.078Z,1.20
2018-09-22T11:14:13.240Z,1.90
2018-09-22T11:16:42.586Z,1.57
2018-09-22T11:19:12.523Z,2.13
2018-09-22T11:21:41.911Z,1.30
2018-09-22T11:24:11.306Z,2.20
2018-09-22T11:26:41.189Z,1.70
2018-09-22T11:29:10.702Z,1.80
2018-09-22T11:31:40.219Z,1.57
2018-09-22T11:34:10.075Z,1.60
2018-09-22T11:36:39.962Z,1.77
2018-09-22T11:39:11.254Z,2.00
2018-09-22T11:41:43.589Z,1.53
2018-09-22T11:44:13.537Z,1.97
2018-09-22T11:46:42.610Z,1.87
2018-09-22T11:49:11.677Z,1.70
2018-09-22T11:51:41.837Z,1.43
2018-09-22T11:54:10.974Z,1.57
2018-09-22T11:56:40.340Z,1.40
2018-09-22T11:59:09.390Z,1.13
2018-09-22T12:01:39.512Z,1.93
2018-09-22T12:04:09.255Z,1.53
2018-09-22T12:06:39.546Z,1.60
2018-09-22T12:09:10.246Z,1.50
2018-09-22T12:11:39.562Z,1.40
2018-09-22T12:14:09.149Z,1.97
2018-09-22T12:16:39.211Z,1.23
2018-09-22T12:19:09.103Z,1.60
2018-09-22T12:21:38.362Z,1.57
2018-09-22T12:24:07.955Z,1.50
2018-09-22T12:26:37.414Z,1.47
2018-09-22T12:29:07.158Z,0.87
2018-09-22T12:31:37.450Z,1.30
2018-09-22T12:34:07.085Z,1.30
2018-09-22T12:36:37.000Z,1.83
2018-09-22T12:39:09.653Z,1.50
2018-09-22T12:41:40.012Z,1.10
2018-09-22T12:44:09.850Z,1.40
2018-09-22T12:46:39.814Z,1.20
2018-09-22T12:49:09.570Z,1.57
2018-09-22T12:51:39.196Z,1.13
2018-09-22T12:54:09.069Z,1.53
2018-09-22T12:56:38.735Z,1.27
2018-09-22T12:59:08.385Z,1.30
2018-09-22T13:01:37.638Z,1.60
2018-09-22T13:04:07.295Z,1.40
2018-09-22T13:06:37.571Z,1.07
2018-09-22T13:09:08.939Z,1.57
2018-09-22T13:11:39.247Z,1.47
2018-09-22T13:14:08.559Z,1.47
2018-09-22T13:16:38.343Z,0.73
2018-09-22T13:19:08.218Z,1.23
2018-09-22T13:21:38.590Z,1.90
2018-09-22T13:24:08.094Z,1.60
2018-09-22T13:26:38.144Z,1.23
2018-09-22T13:29:07.187Z,1.50
2018-09-22T13:31:37.027Z,1.13
2018-09-22T13:34:07.238Z,1.50
2018-09-22T13:36:36.951Z,1.40
2018-09-22T13:39:10.107Z,1.37
2018-09-22T13:41:40.338Z,1.57
2018-09-22T13:44:09.907Z,1.70
2018-09-22T13:46:39.442Z,1.00
2018-09-22T13:49:08.958Z,1.50
2018-09-22T13:51:38.626Z,1.37
2018-09-22T13:54:08.501Z,1.27
2018-09-22T13:56:37.895Z,1.03
2018-09-22T13:59:07.883Z,1.17
2018-09-22T14:01:37.422Z,1.60
2018-09-22T14:04:07.568Z,1.10
2018-09-22T14:06:37.392Z,1.40
2018-09-22T14:09:09.647Z,0.90
2018-09-22T14:11:39.946Z,1.07
2018-09-22T14:14:09.643Z,1.13
2018-09-22T14:16:39.774Z,1.17
2018-09-22T14:19:09.190Z,1.57
2018-09-22T14:21:38.598Z,0.90
2018-09-22T14:24:08.359Z,1.27
2018-09-22T14:26:37.858Z,1.50
2018-09-22T14:29:07.071Z,1.17
2018-09-22T14:31:36.742Z,0.77
2018-09-22T14:34:06.714Z,1.30
2018-09-22T14:36:38.600Z,1.67
2018-09-22T14:39:08.784Z,1.10
2018-09-22T14:41:38.299Z,1.10
2018-09-22T14:44:08.114Z,1.33
2018-09-22T14:46:37.899Z,0.87
2018-09-22T14:49:07.684Z,1.10
2018-09-22T14:51:37.210Z,1.00
2018-09-22T14:54:06.731Z,1.27
2018-09-22T14:56:37.066Z,0.90
2018-09-22T14:59:06.959Z,1.20
2018-09-22T15:01:37.160Z,0.80
2018-09-22T15:04:07.435Z,1.50
2018-09-22T15:06:37.335Z,1.13
2018-09-22T15:09:08.398Z,1.40
2018-09-22T15:11:38.301Z,1.17
2018-09-22T15:14:08.391Z,1.63
2018-09-22T15:16:38.290Z,1.33
2018-09-22T15:19:08.241Z,1.00
2018-09-22T15:21:38.106Z,1.20
2018-09-22T15:24:08.481Z,1.30
2018-09-22T15:26:37.925Z,1.63
2018-09-22T15:29:07.491Z,1.20
2018-09-22T15:31:37.749Z,1.17
2018-09-22T15:34:06.934Z,0.80
2018-09-22T15:36:36.580Z,1.07
2018-09-22T15:39:08.082Z,0.77
2018-09-22T15:41:38.059Z,0.93
2018-09-22T15:44:07.933Z,0.77
2018-09-22T15:46:37.771Z,0.70
2018-09-22T15:49:07.686Z,0.60
2018-09-22T15:51:37.094Z,1.63
2018-09-22T15:54:07.168Z,1.20
2018-09-22T15:56:36.554Z,0.90
2018-09-22T15:59:06.309Z,1.07
2018-09-22T16:01:36.547Z,1.03
2018-09-22T16:04:06.293Z,1.00
2018-09-22T16:06:36.063Z,1.03
2018-09-22T16:09:07.610Z,1.00
2018-09-22T16:11:36.706Z,0.90
2018-09-22T16:14:06.349Z,0.83
2018-09-22T16:16:36.163Z,0.77
2018-09-22T16:19:06.350Z,0.90
2018-09-22T16:21:36.232Z,1.13
2018-09-22T16:24:06.325Z,0.83
2018-09-22T16:26:36.084Z,1.03
2018-09-22T16:29:05.914Z,0.83
2018-09-22T16:31:35.791Z,0.60
2018-09-22T16:34:05.656Z,0.90
2018-09-22T16:36:35.254Z,1.00
2018-09-22T16:39:06.376Z,1.33
2018-09-22T16:41:36.274Z,1.07
2018-09-22T16:44:05.979Z,1.30
2018-09-22T16:46:36.202Z,0.93
2018-09-22T16:49:06.307Z,1.43
2018-09-22T16:51:36.262Z,0.93
2018-09-22T16:54:05.880Z,1.27
2018-09-22T16:56:35.788Z,1.50
2018-09-22T16:59:05.051Z,1.37
2018-09-22T17:01:34.635Z,1.17
2018-09-22T17:04:04.393Z,1.10
2018-09-22T17:06:34.524Z,0.80
2018-09-22T17:09:05.530Z,1.27
2018-09-22T17:11:35.068Z,1.07
2018-09-22T17:14:04.837Z,1.30
2018-09-22T17:16:34.963Z,1.63
2018-09-22T17:19:04.246Z,1.57
2018-09-22T17:21:33.990Z,0.83
2018-09-22T17:24:03.996Z,1.30
2018-09-22T17:26:32.987Z,0.70
2018-09-22T17:29:02.974Z,0.57
2018-09-22T17:31:32.557Z,0.67
2018-09-22T17:34:02.150Z,0.80
2018-09-22T17:36:31.824Z,0.90
2018-09-22T17:39:01.237Z,0.67
2018-09-22T17:41:30.776Z,0.70
2018-09-22T17:44:00.655Z,0.97
2018-09-22T17:46:30.455Z,0.80
2018-09-22T17:49:00.313Z,0.87
2018-09-22T17:51:29.682Z,1.13
2018-09-22T17:53:59.097Z,0.93
2018-09-22T17:56:29.167Z,1.20
2018-09-22T17:58:58.212Z,0.77
2018-09-22T18:01:28.183Z,0.77
2018-09-22T18:03:57.732Z,0.60
2018-09-22T18:06:27.443Z,1.20
2018-09-22T18:08:56.787Z,0.93
2018-09-22T18:11:26.730Z,1.60
2018-09-22T18:13:57.395Z,1.73
2018-09-22T18:16:27.477Z,1.30
2018-09-22T18:18:58.316Z,1.40
2018-09-22T18:21:28.348Z,1.03
2018-09-22T18:23:58.689Z,0.90
2018-09-22T18:26:28.878Z,0.97
2018-09-22T18:28:58.582Z,0.70
2018-09-22T18:31:28.170Z,0.93
2018-09-22T18:33:58.157Z,1.17
2018-09-22T18:36:28.435Z,0.97
2018-09-22T18:38:58.214Z,1.10
2018-09-22T18:41:27.491Z,0.83
2018-09-22T18:43:57.631Z,1.13
2018-09-22T18:46:27.242Z,0.80
2018-09-22T18:48:57.127Z,1.23
2018-09-22T18:51:26.679Z,1.10
2018-09-22T18:53:57.016Z,1.37
2018-09-22T18:56:27.044Z,0.90
2018-09-22T18:58:57.242Z,1.00
2018-09-22T19:01:26.574Z,0.80
2018-09-22T19:03:56.083Z,0.57
2018-09-22T19:06:25.646Z,0.80
2018-09-22T19:08:55.271Z,1.00
2018-09-22T19:11:25.183Z,1.30
2018-09-22T19:14:02.497Z,0.87
2018-09-22T19:16:41.628Z,1.23
2018-09-22T19:19:13.695Z,0.83
2018-09-22T19:21:49.849Z,1.17
2018-09-22T19:24:28.288Z,0.93
2018-09-22T19:27:05.447Z,1.17
2018-09-22T19:30:45.908Z,1.10
2018-09-22T19:33:20.371Z,1.57
2018-09-22T19:35:56.936Z,1.30
2018-09-22T19:38:51.307Z,1.40
2018-09-22T19:41:56.532Z,1.77
2018-09-22T19:45:33.532Z,1.37
2018-09-22T19:48:09.502Z,1.07
2018-09-22T19:50:44.011Z,0.70
2018-09-22T19:53:14.419Z,1.37
2018-09-22T19:55:44.274Z,1.23
2018-09-22T19:58:16.078Z,1.53
2018-09-22T20:00:45.842Z,1.10
2018-09-22T20:03:15.304Z,1.30
2018-09-22T20:05:44.807Z,1.10
2018-09-22T20:08:14.650Z,1.17
2018-09-22T20:10:44.790Z,1.17
2018-09-22T20:13:14.074Z,1.23
2018-09-22T20:15:44.149Z,0.90
2018-09-22T20:18:14.107Z,1.47
2018-09-22T20:20:43.710Z,1.47
2018-09-22T20:23:13.598Z,1.30
2018-09-22T20:25:42.975Z,1.60
2018-09-22T20:28:12.886Z,1.17
2018-09-22T20:30:42.107Z,1.40
2018-09-22T20:33:11.777Z,1.20
2018-09-22T20:35:41.837Z,1.80
2018-09-22T20:38:11.386Z,1.10
2018-09-22T20:40:41.299Z,1.70
2018-09-22T20:43:11.243Z,1.30
2018-09-22T20:45:40.926Z,1.43
2018-09-22T20:48:10.462Z,1.40
2018-09-22T20:50:40.463Z,1.27
2018-09-22T20:53:10.330Z,1.37
2018-09-22T20:55:40.083Z,1.30
2018-09-22T20:58:10.215Z,1.10
2018-09-22T21:00:39.548Z,1.57
2018-09-22T21:03:09.326Z,1.33
2018-09-22T21:05:39.422Z,1.13
2018-09-22T21:08:09.870Z,1.40
2018-09-22T21:10:39.358Z,1.00
2018-09-22T21:13:09.084Z,1.33
2018-09-22T21:15:39.051Z,1.33
2018-09-22T21:18:08.978Z,1.20
2018-09-22T21:20:38.291Z,1.00
2018-09-22T21:23:08.253Z,1.03
2018-09-22T21:25:38.456Z,1.73
2018-09-22T21:28:08.023Z,1.67
2018-09-22T21:30:37.878Z,1.63
2018-09-22T21:33:07.466Z,1.30
2018-09-22T21:35:37.246Z,1.30
2018-09-22T21:38:07.702Z,0.83
2018-09-22T21:40:37.618Z,1.10
2018-09-22T21:43:07.322Z,1.10
2018-09-22T21:45:37.248Z,1.37
2018-09-22T21:48:07.035Z,1.10
2018-09-22T21:50:36.826Z,1.00
2018-09-22T21:53:06.366Z,0.93
2018-09-22T21:55:36.178Z,1.00
2018-09-22T21:58:05.995Z,1.30
2018-09-22T22:00:35.294Z,1.77
2018-09-22T22:03:04.850Z,1.47
2018-09-22T22:05:34.398Z,0.97
2018-09-22T22:08:05.865Z,0.90
2018-09-22T22:10:35.966Z,0.83
2018-09-22T22:13:05.323Z,0.97
2018-09-22T22:15:34.752Z,1.33
2018-09-22T22:18:04.790Z,1.60
2018-09-22T22:20:34.382Z,0.83
2018-09-22T22:23:03.886Z,0.80
2018-09-22T22:25:34.160Z,1.47
2018-09-22T22:28:04.349Z,1.30
2018-09-22T22:30:33.838Z,1.53
2018-09-22T22:33:03.650Z,1.03
2018-09-22T22:35:32.986Z,1.73
2018-09-22T22:38:03.014Z,1.40
2018-09-22T22:40:32.967Z,1.50
2018-09-22T22:43:02.962Z,1.40
2018-09-22T22:45:32.816Z,1.73
2018-09-22T22:48:02.606Z,0.90
2018-09-22T22:50:31.841Z,1.27
2018-09-22T22:53:00.931Z,1.20
2018-09-22T22:55:30.278Z,1.33
2018-09-22T22:58:00.206Z,0.93
2018-09-22T23:00:29.714Z,1.17
2018-09-22T23:02:58.844Z,1.00
2018-09-22T23:05:28.107Z,1.60
2018-09-22T23:07:57.804Z,1.70
2018-09-22T23:10:27.031Z,1.33
2018-09-22T23:12:56.918Z,1.40
2018-09-22T23:15:26.951Z,0.93
2018-09-22T23:17:56.688Z,1.30
2018-09-22T23:20:26.482Z,1.20
2018-09-22T23:22:55.903Z,1.30
2018-09-22T23:25:25.292Z,1.00
2018-09-22T23:27:54.639Z,1.10
2018-09-22T23:30:23.950Z,1.10
2018-09-22T23:32:53.062Z,1.37
2018-09-22T23:35:22.695Z,1.00
2018-09-22T23:37:52.330Z,1.10
2018-09-22T23:40:21.666Z,1.30
2018-09-22T23:42:51.374Z,1.33
2018-09-22T23:45:20.448Z,1.67
2018-09-22T23:47:50.187Z,1.60
2018-09-22T23:50:19.929Z,1.50
2018-09-22T23:52:49.415Z,1.43
2018-09-22T23:55:19.318Z,1.50
2018-09-22T23:57:48.714Z,0.90
